Time;durP1;ratioP1;P1;durP2;ratioP2;P2;SDS_P1;SDS_P2;PMS_P1;PMS_P2;Temp;Humidity;BMP_temperature;BMP_pressure;BME280_temperature;BME280_humidity;BME280_pressure;Samples;Min_cycle;Max_cycle;Signal;HPM_P1;HPM_P2
2021/08/03 00:00:27;;;;;;;17.35;13.35;;;13.80;99.90;;;;;;4937555;28;20094;-74
2021/08/03 00:02:58;;;;;;;19.02;12.88;;;13.90;99.90;;;;;;4945803;29;20055;-74
2021/08/03 00:05:29;;;;;;;20.60;13.73;;;13.90;99.90;;;;;;4946023;28;20338;-74
2021/08/03 00:08:20;;;;;;;21.85;14.48;;;13.80;99.90;;;;;;4947356;29;20282;-74
2021/08/03 00:10:47;;;;;;;21.45;13.73;;;13.80;99.90;;;;;;4961498;28;20051;-74
2021/08/03 00:13:14;;;;;;;20.70;15.68;;;13.80;99.90;;;;;;4963290;28;20054;-74
2021/08/03 00:15:41;;;;;;;24.02;14.43;;;13.70;99.90;;;;;;4953786;28;20068;-74
2021/08/03 00:18:08;;;;;;;18.83;13.82;;;13.50;99.90;;;;;;4927565;29;20058;-74
2021/08/03 00:20:36;;;;;;;20.55;14.68;;;13.40;99.90;;;;;;4946056;28;20059;-74
2021/08/03 00:23:03;;;;;;;21.05;16.42;;;13.30;99.90;;;;;;4956563;28;20059;-74
2021/08/03 00:25:30;;;;;;;25.45;16.48;;;13.20;99.90;;;;;;4974871;28;20126;-74
2021/08/03 00:27:57;;;;;;;20.10;14.98;;;13.20;99.90;;;;;;4945227;29;20054;-74
2021/08/03 00:30:24;;;;;;;29.30;18.40;;;13.00;99.90;;;;;;4945050;28;20526;-74
2021/08/03 00:32:53;;;;;;;24.52;17.35;;;12.90;99.90;;;;;;4959896;28;20055;-75
2021/08/03 00:35:21;;;;;;;25.27;18.50;;;12.80;99.90;;;;;;4943917;28;20392;-74
2021/08/03 00:37:49;;;;;;;28.25;18.02;;;12.80;99.90;;;;;;4941832;28;20329;-76
2021/08/03 00:40:18;;;;;;;27.05;18.70;;;12.80;99.90;;;;;;4925538;29;20086;-76
2021/08/03 00:42:45;;;;;;;27.25;18.60;;;12.70;99.90;;;;;;4926347;29;20039;-76
2021/08/03 00:45:14;;;;;;;27.13;17.75;;;12.70;99.90;;;;;;4925244;29;20133;-75
2021/08/03 00:47:47;;;;;;;25.45;18.58;;;12.60;99.90;;;;;;4928571;29;20481;-76
2021/08/03 00:50:14;;;;;;;24.70;15.48;;;12.50;99.90;;;;;;4942530;28;20152;-76
2021/08/03 00:52:42;;;;;;;22.27;16.10;;;12.40;99.90;;;;;;4972633;28;20073;-74
2021/08/03 00:55:11;;;;;;;24.42;16.90;;;12.30;99.90;;;;;;4961377;28;20053;-76
2021/08/03 00:57:42;;;;;;;30.20;17.48;;;12.40;99.90;;;;;;4934553;28;20039;-73
2021/08/03 01:00:10;;;;;;;27.05;18.55;;;12.30;99.90;;;;;;4934482;28;20051;-76
2021/08/03 01:02:38;;;;;;;25.77;17.02;;;12.20;99.90;;;;;;4927909;28;20595;-76
2021/08/03 01:05:06;;;;;;;26.17;17.55;;;12.10;99.90;;;;;;4944022;29;20084;-73
2021/08/03 01:08:02;;;;;;;21.88;16.23;;;12.10;99.90;;;;;;4960977;28;20061;-74
2021/08/03 01:11:03;;;;;;;27.10;17.50;;;12.10;99.90;;;;;;4928423;28;20081;-75
2021/08/03 01:14:16;;;;;;;25.85;17.40;;;12.20;99.90;;;;;;4973143;28;20055;-74
2021/08/03 01:17:04;;;;;;;29.30;19.13;;;12.30;99.90;;;;;;4913533;29;20139;-74
2021/08/03 01:19:34;;;;;;;30.95;18.67;;;12.20;99.90;;;;;;4948740;28;20061;-76
2021/08/03 01:22:32;;;;;;;32.03;19.20;;;12.20;99.90;;;;;;4955260;28;20047;-76
2021/08/03 01:25:06;;;;;;;28.70;18.17;;;12.30;99.90;;;;;;4963885;28;20058;-76
2021/08/03 01:28:01;;;;;;;28.73;18.50;;;12.30;99.90;;;;;;4963248;28;20051;-76
2021/08/03 01:30:28;;;;;;;;;;;12.10;99.90;;;;;;4930938;28;20113;-76
2021/08/03 01:32:57;;;;;;;28.38;16.33;;;12.20;99.90;;;;;;4934939;29;20360;-76
2021/08/03 01:35:27;;;;;;;25.00;16.38;;;12.30;99.90;;;;;;4958931;28;20055;-76
2021/08/03 01:37:57;;;;;;;23.98;15.70;;;12.20;99.90;;;;;;4959734;28;20139;-76
2021/08/03 01:40:25;;;;;;;27.08;17.00;;;12.10;99.90;;;;;;4944780;28;20134;-73
2021/08/03 01:42:53;;;;;;;21.52;15.10;;;12.00;99.90;;;;;;4962738;28;20059;-74
2021/08/03 01:45:22;;;;;;;22.45;15.68;;;11.90;99.90;;;;;;4926464;29;20110;-75
2021/08/03 01:47:54;;;;;;;23.52;14.73;;;11.90;99.90;;;;;;4909255;29;20064;-76
2021/08/03 01:50:25;;;;;;;21.55;14.73;;;11.70;99.90;;;;;;4958733;28;20061;-73
2021/08/03 01:53:02;;;;;;;20.15;13.93;;;11.60;99.90;;;;;;4964994;28;20047;-76
2021/08/03 01:55:32;;;;;;;23.27;14.25;;;11.60;99.90;;;;;;4927856;29;20207;-75
2021/08/03 01:58:05;;;;;;;28.63;15.48;;;11.60;99.90;;;;;;4925326;29;20071;-75
2021/08/03 02:00:45;;;;;;;22.83;13.45;;;11.50;99.90;;;;;;4922405;29;20091;-76
2021/08/03 02:03:16;;;;;;;;;;;11.40;99.90;;;;;;4944610;29;20409;-74
2021/08/03 02:05:45;;;;;;;21.38;12.80;;;11.40;99.90;;;;;;4946682;28;19949;-74
2021/08/03 02:08:21;;;;;;;28.42;16.42;;;11.50;99.90;;;;;;4959839;28;20535;-74
2021/08/03 02:11:05;;;;;;;29.65;15.93;;;11.50;99.90;;;;;;4943991;28;20508;-74
2021/08/03 02:13:32;;;;;;;25.73;15.25;;;11.40;99.90;;;;;;4942183;28;20058;-74
2021/08/03 02:15:59;;;;;;;23.88;14.82;;;11.40;99.90;;;;;;4951234;28;20523;-74
2021/08/03 02:18:27;;;;;;;22.95;14.13;;;11.40;99.90;;;;;;4975559;28;20134;-74
2021/08/03 02:20:55;;;;;;;27.63;15.15;;;11.50;99.90;;;;;;4950013;28;20098;-74
2021/08/03 02:23:29;;;;;;;20.00;13.05;;;11.50;99.90;;;;;;4949678;28;20109;-74
2021/08/03 02:26:01;;;;;;;29.40;14.48;;;11.50;99.90;;;;;;4929285;28;20039;-74
2021/08/03 02:28:28;;;;;;;21.85;13.98;;;11.30;99.90;;;;;;4954077;28;20055;-74
2021/08/03 02:31:02;;;;;;;19.67;13.70;;;11.20;99.90;;;;;;4941555;28;20051;-74
2021/08/03 02:33:38;;;;;;;21.83;14.30;;;11.30;99.90;;;;;;4954196;28;20055;-74
2021/08/03 02:36:12;;;;;;;20.80;13.68;;;11.20;99.90;;;;;;4945272;29;20138;-74
2021/08/03 02:38:43;;;;;;;20.92;14.70;;;11.30;99.90;;;;;;4948345;28;20062;-75
2021/08/03 02:41:17;;;;;;;23.70;14.88;;;11.30;99.90;;;;;;4930677;29;20472;-74
2021/08/03 02:43:49;;;;;;;23.15;14.45;;;11.20;99.90;;;;;;4963268;28;20047;-76
2021/08/03 02:46:23;;;;;;;23.45;13.88;;;11.10;99.90;;;;;;4936929;28;20062;-74
2021/08/03 02:49:08;;;;;;;25.55;15.15;;;10.90;99.90;;;;;;4927693;29;20119;-75
2021/08/03 02:51:37;;;;;;;21.67;15.55;;;10.80;99.90;;;;;;4962447;28;20523;-74
2021/08/03 02:54:17;;;;;;;26.60;15.77;;;10.70;99.90;;;;;;4967408;28;20431;-74
2021/08/03 02:56:51;;;;;;;25.45;14.48;;;10.70;99.90;;;;;;4954450;28;20235;-74
2021/08/03 02:59:20;;;;;;;31.63;15.38;;;10.70;99.90;;;;;;4947184;29;20512;-74
2021/08/03 03:01:47;;;;;;;24.70;14.05;;;10.70;99.90;;;;;;4937897;28;20679;-73
2021/08/03 03:04:25;;;;;;;26.58;15.45;;;10.60;99.90;;;;;;4944497;29;20047;-76
2021/08/03 03:06:56;;;;;;;26.52;16.42;;;10.50;99.90;;;;;;4959692;28;20090;-76
2021/08/03 03:09:28;;;;;;;31.30;16.50;;;10.70;99.90;;;;;;4948411;28;20212;-75
2021/08/03 03:11:57;;;;;;;32.15;18.40;;;10.60;99.90;;;;;;4963213;28;20043;-75
2021/08/03 03:14:26;;;;;;;30.42;17.40;;;10.60;99.90;;;;;;4963379;28;20038;-76
2021/08/03 03:16:56;;;;;;;25.48;16.52;;;10.60;99.90;;;;;;4955910;28;20051;-76
2021/08/03 03:19:25;;;;;;;30.42;18.02;;;10.40;99.90;;;;;;4946388;28;20051;-74
2021/08/03 03:21:53;;;;;;;37.03;20.08;;;10.30;99.90;;;;;;4955317;28;20328;-74
2021/08/03 03:24:22;;;;;;;23.17;15.02;;;10.30;99.90;;;;;;4965741;28;20137;-76
2021/08/03 03:26:51;;;;;;;26.08;15.38;;;10.20;99.90;;;;;;4961666;28;20270;-75
2021/08/03 03:29:20;;;;;;;29.98;16.65;;;10.20;99.90;;;;;;4961855;28;20039;-75
2021/08/03 03:31:48;;;;;;;24.30;16.00;;;10.10;99.90;;;;;;4943890;28;20047;-74
2021/08/03 03:34:16;;;;;;;28.88;17.67;;;10.10;99.90;;;;;;4947630;28;20130;-74
2021/08/03 03:36:47;;;;;;;35.80;19.05;;;9.90;99.90;;;;;;4960334;28;20051;-74
2021/08/03 03:39:15;;;;;;;31.67;18.42;;;9.90;99.90;;;;;;4929846;29;20106;-76
2021/08/03 03:41:53;;;;;;;27.50;17.40;;;9.90;99.90;;;;;;4961912;28;20048;-75
2021/08/03 03:44:21;;;;;;;39.63;21.13;;;9.80;99.90;;;;;;4929441;29;20170;-75
2021/08/03 03:47:17;;;;;;;46.03;23.92;;;9.90;99.90;;;;;;4946995;28;20194;-75
2021/08/03 03:49:50;;;;;;;44.75;22.92;;;9.90;99.90;;;;;;4963863;28;20057;-75
2021/08/03 03:52:21;;;;;;;34.50;18.80;;;9.70;99.90;;;;;;4966996;28;20054;-75
2021/08/03 03:54:52;;;;;;;35.70;18.80;;;9.70;99.90;;;;;;4942740;29;20560;-75
2021/08/03 03:57:21;;;;;;;38.42;20.10;;;9.50;99.90;;;;;;4995992;23;20148;-74
2021/08/03 03:59:50;;;;;;;40.42;21.70;;;9.50;99.90;;;;;;5027698;28;20084;-74
2021/08/03 04:02:19;;;;;;;40.65;20.25;;;9.50;99.90;;;;;;5022112;28;20518;-74
2021/08/03 04:04:47;;;;;;;40.28;21.63;;;9.60;99.90;;;;;;5005621;28;20148;-74
2021/08/03 04:07:15;;;;;;;41.38;21.73;;;9.60;99.90;;;;;;5023346;28;20156;-74
2021/08/03 04:09:42;;;;;;;38.72;21.92;;;9.60;99.90;;;;;;5008350;28;20053;-74
2021/08/03 04:12:14;;;;;;;36.10;20.58;;;9.70;99.90;;;;;;4986944;28;20560;-74
2021/08/03 04:14:44;;;;;;;37.53;21.42;;;9.80;99.90;;;;;;5019957;28;20157;-74
2021/08/03 04:17:13;;;;;;;41.92;23.42;;;9.70;99.90;;;;;;5020006;28;20042;-74
2021/08/03 04:19:41;;;;;;;39.15;22.88;;;9.70;99.90;;;;;;5031143;28;20059;-74
2021/08/03 04:22:08;;;;;;;46.22;23.95;;;9.70;99.90;;;;;;5011352;28;20371;-74
2021/08/03 04:24:35;;;;;;;33.30;20.67;;;9.70;99.90;;;;;;4996957;28;20054;-74
2021/08/03 04:27:02;;;;;;;34.58;21.55;;;9.70;99.90;;;;;;5023071;28;20040;-73
2021/08/03 04:29:29;;;;;;;34.88;20.83;;;9.80;99.90;;;;;;5009197;28;20050;-74
2021/08/03 04:31:56;;;;;;;42.28;23.80;;;10.00;99.90;;;;;;5010190;28;20045;-74
2021/08/03 04:34:22;;;;;;;32.53;19.42;;;10.00;99.90;;;;;;5009263;28;20056;-74
2021/08/03 04:36:49;;;;;;;25.52;17.90;;;9.90;99.90;;;;;;5000667;28;20454;-74
2021/08/03 04:39:16;;;;;;;34.83;19.83;;;9.80;99.90;;;;;;4985538;28;20199;-74
2021/08/03 04:41:43;;;;;;;36.63;22.17;;;9.80;99.90;;;;;;5001643;28;20466;-74
2021/08/03 04:44:10;;;;;;;55.33;31.13;;;10.00;99.90;;;;;;5003448;28;20079;-74
2021/08/03 04:46:36;;;;;;;54.10;29.05;;;10.20;99.90;;;;;;5002506;28;20518;-74
2021/08/03 04:49:03;;;;;;;47.95;27.42;;;10.20;99.90;;;;;;5003506;28;20557;-74
2021/08/03 04:51:30;;;;;;;52.13;28.17;;;10.40;99.90;;;;;;5010481;28;20104;-74
2021/08/03 04:53:57;;;;;;;48.67;29.17;;;10.40;99.90;;;;;;4993645;28;20046;-74
2021/08/03 04:56:23;;;;;;;45.88;27.15;;;10.30;99.90;;;;;;5005943;28;20533;-74
2021/08/03 04:58:50;;;;;;;42.58;24.45;;;10.30;99.90;;;;;;5001944;28;20058;-74
2021/08/03 05:01:17;;;;;;;47.03;27.35;;;10.50;99.90;;;;;;5001311;28;20049;-75
2021/08/03 05:03:44;;;;;;;38.35;24.13;;;10.80;99.90;;;;;;5008184;28;20065;-74
2021/08/03 05:06:11;;;;;;;39.15;23.65;;;10.90;99.90;;;;;;5002682;28;20042;-75
2021/08/03 05:08:38;;;;;;;38.85;24.77;;;11.10;99.90;;;;;;5002515;28;20054;-74
2021/08/03 05:11:05;;;;;;;38.17;22.13;;;11.10;99.90;;;;;;5002288;28;20065;-74
2021/08/03 05:13:32;;;;;;;39.30;23.92;;;11.10;99.90;;;;;;4999224;28;20527;-75
2021/08/03 05:15:59;;;;;;;38.50;20.38;;;11.20;99.90;;;;;;4999503;28;20133;-74
2021/08/03 05:18:26;;;;;;;33.75;22.52;;;11.40;99.90;;;;;;5001911;28;20072;-74
2021/08/03 05:20:53;;;;;;;33.05;21.50;;;11.60;99.90;;;;;;5009024;28;20056;-75
2021/08/03 05:23:20;;;;;;;38.40;21.08;;;11.80;99.90;;;;;;5015577;28;20056;-75
2021/08/03 05:25:47;;;;;;;29.95;20.48;;;11.80;99.90;;;;;;4997848;28;20072;-74
2021/08/03 05:28:14;;;;;;;29.02;20.50;;;12.00;99.90;;;;;;5002555;28;20061;-74
2021/08/03 05:30:40;;;;;;;32.55;20.38;;;12.10;99.90;;;;;;4982383;28;20045;-74
2021/08/03 05:33:07;;;;;;;36.45;21.13;;;12.10;99.90;;;;;;5005856;28;20354;-74
2021/08/03 05:35:36;;;;;;;33.25;21.73;;;12.20;99.90;;;;;;4976488;28;20499;-75
2021/08/03 05:38:03;;;;;;;31.75;20.88;;;12.30;99.90;;;;;;4969309;28;20073;-73
2021/08/03 05:40:29;;;;;;;34.20;22.35;;;12.40;99.90;;;;;;5009046;28;20124;-74
2021/08/03 05:42:56;;;;;;;32.08;22.77;;;12.60;99.90;;;;;;4986055;28;20537;-74
2021/08/03 05:45:23;;;;;;;34.00;23.33;;;12.80;99.90;;;;;;5001498;28;20307;-74
2021/08/03 05:47:50;;;;;;;34.53;24.00;;;12.90;99.90;;;;;;4997611;28;20612;-74
2021/08/03 05:50:17;;;;;;;35.42;22.55;;;13.00;99.90;;;;;;5004706;28;20057;-74
2021/08/03 05:52:43;;;;;;;39.17;23.38;;;13.20;99.90;;;;;;5019832;28;20057;-74
2021/08/03 05:55:11;;;;;;;36.55;23.35;;;13.30;99.90;;;;;;5004221;28;20061;-74
2021/08/03 05:57:38;;;;;;;33.72;21.52;;;13.40;99.90;;;;;;4988555;28;20041;-74
2021/08/03 06:00:06;;;;;;;33.42;21.42;;;13.40;99.90;;;;;;4991582;28;20050;-76
2021/08/03 06:02:39;;;;;;;28.25;20.27;;;13.50;99.90;;;;;;5002926;28;20058;-74
2021/08/03 06:05:08;;;;;;;29.10;19.75;;;13.70;99.90;;;;;;4987852;28;20744;-75
2021/08/03 06:07:41;;;;;;;27.02;20.27;;;13.80;99.90;;;;;;5006826;28;20053;-74
2021/08/03 06:10:15;;;;;;;26.58;19.08;;;13.80;99.90;;;;;;5005372;28;20060;-75
2021/08/03 06:12:49;;;;;;;28.93;20.50;;;13.90;99.90;;;;;;5021771;28;20068;-74
2021/08/03 06:15:16;;;;;;;32.00;18.83;;;14.00;99.90;;;;;;4987870;28;20054;-75
2021/08/03 06:17:47;;;;;;;28.85;19.63;;;14.00;99.90;;;;;;5006999;28;20049;-74
2021/08/03 06:20:14;;;;;;;26.05;18.88;;;14.10;99.90;;;;;;5014020;28;20104;-74
2021/08/03 06:22:41;;;;;;;28.88;19.85;;;14.10;99.90;;;;;;4997446;28;20045;-73
2021/08/03 06:25:14;;;;;;;29.40;20.50;;;14.20;99.90;;;;;;5003329;28;20049;-74
2021/08/03 06:27:42;;;;;;;27.50;19.40;;;14.30;99.90;;;;;;5020858;28;20037;-73
2021/08/03 06:30:09;;;;;;;29.58;20.17;;;14.30;99.90;;;;;;5035899;28;20029;-73
2021/08/03 06:32:41;;;;;;;31.33;22.20;;;14.30;99.90;;;;;;5032222;28;20046;-73
2021/08/03 06:35:10;;;;;;;36.42;23.40;;;14.40;99.90;;;;;;5062852;28;20041;-74
2021/08/03 06:37:37;;;;;;;30.52;21.98;;;14.40;99.90;;;;;;5025398;28;20054;-73
2021/08/03 06:40:05;;;;;;;29.77;21.67;;;14.50;99.90;;;;;;5024482;28;20414;-74
2021/08/03 06:42:34;;;;;;;34.15;22.92;;;14.50;99.90;;;;;;5007449;28;20054;-74
2021/08/03 06:45:05;;;;;;;32.35;23.88;;;14.30;99.90;;;;;;5004301;28;20049;-74
2021/08/03 06:47:50;;;;;;;34.65;22.98;;;14.40;99.90;;;;;;5037763;28;20054;-73
2021/08/03 06:50:21;;;;;;;37.83;24.30;;;14.70;99.90;;;;;;5010346;28;20050;-73
2021/08/03 06:52:50;;;;;;;34.28;24.15;;;14.70;99.90;;;;;;5029261;28;20041;-72
2021/08/03 06:55:21;;;;;;;39.28;25.70;;;15.10;99.90;;;;;;5026688;28;20050;-74
2021/08/03 06:57:51;;;;;;;34.50;23.58;;;15.30;99.90;;;;;;5016690;28;20517;-74
2021/08/03 07:00:19;;;;;;;36.97;25.10;;;15.70;99.90;;;;;;5006390;28;20120;-74
2021/08/03 07:02:49;;;;;;;35.13;25.38;;;15.90;99.90;;;;;;5002958;28;20050;-73
2021/08/03 07:05:26;;;;;;;37.22;27.33;;;16.10;99.90;;;;;;5019724;28;20046;-73
2021/08/03 07:07:59;;;;;;;35.72;25.92;;;16.00;99.90;;;;;;5013286;28;20049;-74
2021/08/03 07:10:27;;;;;;;36.88;27.05;;;16.40;99.90;;;;;;5010815;28;20051;-74
2021/08/03 07:12:54;;;;;;;32.42;24.95;;;16.90;99.90;;;;;;5003590;28;20058;-74
2021/08/03 07:15:26;;;;;;;36.03;26.05;;;17.20;99.90;;;;;;5000494;28;20328;-74
2021/08/03 07:17:53;;;;;;;31.88;24.55;;;17.30;99.90;;;;;;4987325;28;20058;-74
2021/08/03 07:20:22;;;;;;;24.58;21.02;;;17.60;99.90;;;;;;4985473;28;20065;-74
2021/08/03 07:22:49;;;;;;;27.52;21.92;;;17.70;99.90;;;;;;5001662;28;20045;-74
2021/08/03 07:25:18;;;;;;;24.73;21.83;;;17.70;99.90;;;;;;5022850;28;20080;-74
2021/08/03 07:27:44;;;;;;;22.92;20.23;;;17.70;99.90;;;;;;5015132;28;20054;-74
2021/08/03 07:30:11;;;;;;;26.10;21.73;;;17.70;99.90;;;;;;4996232;28;20710;-74
2021/08/03 07:32:38;;;;;;;27.80;22.27;;;17.70;99.90;;;;;;5003969;28;20077;-74
2021/08/03 07:35:07;;;;;;;27.63;20.38;;;17.60;99.90;;;;;;4986301;28;20053;-75
2021/08/03 07:37:35;;;;;;;29.05;20.85;;;17.60;99.90;;;;;;5001806;28;20037;-74
2021/08/03 07:40:04;;;;;;;25.33;16.90;;;17.50;99.90;;;;;;5003145;28;20113;-74
2021/08/03 07:42:30;;;;;;;19.95;15.55;;;17.70;99.90;;;;;;4984766;28;20057;-74
2021/08/03 07:44:57;;;;;;;23.33;17.13;;;17.90;99.90;;;;;;4983446;28;20046;-74
2021/08/03 07:47:24;;;;;;;22.67;16.88;;;18.40;99.90;;;;;;4989491;28;20038;-74
2021/08/03 07:49:51;;;;;;;21.48;18.92;;;18.50;99.90;;;;;;5009563;28;20107;-74
2021/08/03 07:52:19;;;;;;;24.33;18.17;;;18.70;99.90;;;;;;5012591;28;20429;-74
2021/08/03 07:54:48;;;;;;;24.23;18.67;;;18.70;99.90;;;;;;5021746;28;20077;-74
2021/08/03 07:57:15;;;;;;;19.35;16.17;;;18.40;99.90;;;;;;5006301;28;20041;-74
2021/08/03 07:59:41;;;;;;;17.00;13.73;;;18.60;99.90;;;;;;5008219;28;20580;-74
2021/08/03 08:02:09;;;;;;;16.90;14.73;;;18.20;99.90;;;;;;5003546;28;20523;-74
2021/08/03 08:04:36;;;;;;;15.63;13.85;;;18.00;99.90;;;;;;5020334;28;20046;-73
2021/08/03 08:07:03;;;;;;;19.63;15.65;;;18.00;99.90;;;;;;5019684;28;20081;-74
2021/08/03 08:09:30;;;;;;;18.80;14.95;;;17.60;99.90;;;;;;4985355;28;20065;-75
2021/08/03 08:11:57;;;;;;;17.17;14.63;;;17.50;99.90;;;;;;4969431;28;20077;-74
2021/08/03 08:14:24;;;;;;;18.73;14.52;;;17.50;99.90;;;;;;4967673;28;20518;-74
2021/08/03 08:16:51;;;;;;;20.90;15.38;;;17.60;99.90;;;;;;4986786;28;20133;-76
2021/08/03 08:19:17;;;;;;;17.25;14.65;;;17.00;99.90;;;;;;4989363;28;20057;-74
2021/08/03 08:21:44;;;;;;;26.17;17.88;;;16.90;99.90;;;;;;4995402;28;20506;-74
2021/08/03 08:24:11;;;;;;;21.73;16.55;;;17.00;99.90;;;;;;5021466;28;20100;-74
2021/08/03 08:26:38;;;;;;;17.67;14.70;;;17.10;99.90;;;;;;5018833;28;20048;-74
2021/08/03 08:29:05;;;;;;;18.75;14.48;;;17.30;99.90;;;;;;5006218;28;20049;-75
2021/08/03 08:31:31;;;;;;;13.63;12.23;;;17.30;99.90;;;;;;5002210;28;20213;-75
2021/08/03 08:33:58;;;;;;;14.60;13.10;;;17.40;99.90;;;;;;5003616;28;20357;-75
2021/08/03 08:36:25;;;;;;;18.25;14.93;;;17.60;99.90;;;;;;4997437;28;20054;-75
2021/08/03 08:38:52;;;;;;;16.40;14.70;;;17.80;99.90;;;;;;4989909;28;20498;-74
2021/08/03 08:41:19;;;;;;;16.70;14.13;;;17.90;99.90;;;;;;4982462;28;20057;-74
2021/08/03 08:43:46;;;;;;;23.55;16.42;;;17.70;99.90;;;;;;4984115;28;20054;-74
2021/08/03 08:46:14;;;;;;;15.85;13.32;;;17.60;99.90;;;;;;4981437;28;20049;-75
2021/08/03 08:48:42;;;;;;;15.07;13.57;;;17.60;99.90;;;;;;4985549;28;20116;-74
2021/08/03 08:51:10;;;;;;;16.83;12.95;;;17.80;99.90;;;;;;5013118;28;20566;-74
2021/08/03 08:53:36;;;;;;;17.60;14.55;;;18.00;99.90;;;;;;5003059;28;20057;-73
2021/08/03 08:56:05;;;;;;;18.35;14.90;;;18.20;99.90;;;;;;4994096;28;20140;-74
2021/08/03 08:58:33;;;;;;;21.20;15.30;;;18.10;99.90;;;;;;4993985;28;20056;-73
2021/08/03 09:01:01;;;;;;;15.93;14.45;;;17.90;99.90;;;;;;5009033;28;20049;-74
2021/08/03 09:03:30;;;;;;;16.35;14.70;;;18.00;99.90;;;;;;4991488;28;20128;-74
2021/08/03 09:05:59;;;;;;;19.70;13.63;;;18.10;99.90;;;;;;5012746;28;20120;-74
2021/08/03 09:08:51;;;;;;;14.00;12.70;;;18.30;99.90;;;;;;5007762;28;20058;-74
2021/08/03 09:11:20;;;;;;;14.93;13.65;;;18.40;99.90;;;;;;4986056;28;20064;-74
2021/08/03 09:13:49;;;;;;;13.00;11.52;;;18.40;99.90;;;;;;5035817;28;20053;-74
2021/08/03 09:16:16;;;;;;;12.27;11.30;;;18.20;99.90;;;;;;5012216;28;20062;-74
2021/08/03 09:18:47;;;;;;;12.95;11.75;;;18.10;99.90;;;;;;5010292;28;20463;-76
2021/08/03 09:21:29;;;;;;;13.07;12.05;;;18.20;99.90;;;;;;5008490;28;20463;-75
2021/08/03 09:23:58;;;;;;;13.45;12.38;;;18.60;99.90;;;;;;5020890;28;20544;-75
2021/08/03 09:26:38;;;;;;;13.35;12.15;;;18.40;99.90;;;;;;5005024;28;20053;-75
2021/08/03 09:29:11;;;;;;;12.85;11.80;;;18.50;99.90;;;;;;5017095;28;20045;-76
2021/08/03 09:31:39;;;;;;;12.52;11.43;;;18.70;99.90;;;;;;5000528;28;20076;-75
2021/08/03 09:34:14;;;;;;;11.70;10.82;;;18.80;99.90;;;;;;5004510;28;20453;-76
2021/08/03 09:36:56;;;;;;;13.50;11.75;;;19.00;99.90;;;;;;5013588;28;20167;-75
2021/08/03 09:39:47;;;;;;;13.95;12.30;;;19.00;99.90;;;;;;4999832;28;20077;-76
2021/08/03 09:42:22;;;;;;;12.82;11.73;;;19.20;99.90;;;;;;5001466;28;20050;-75
2021/08/03 09:44:53;;;;;;;13.80;12.88;;;19.30;99.90;;;;;;4985948;28;20061;-76
2021/08/03 09:47:28;;;;;;;12.57;11.57;;;19.00;99.90;;;;;;4984955;28;20038;-75
2021/08/03 09:49:57;;;;;;;12.43;11.43;;;18.70;99.90;;;;;;5008169;28;20056;-75
2021/08/03 09:52:27;;;;;;;13.07;11.70;;;18.20;99.90;;;;;;4994754;28;20049;-76
2021/08/03 09:55:13;;;;;;;13.98;12.77;;;18.50;99.90;;;;;;4987290;28;20049;-75
2021/08/03 09:57:41;;;;;;;;;;;18.50;99.90;;;;;;5004097;28;20053;-75
2021/08/03 10:00:36;;;;;;;14.15;13.10;;;18.50;99.90;;;;;;5002403;28;19925;-76
2021/08/03 10:03:05;;;;;;;12.20;11.15;;;18.70;99.90;;;;;;5004131;28;20399;-76
2021/08/03 10:05:33;;;;;;;13.20;11.90;;;18.50;99.90;;;;;;5013384;28;20518;-75
2021/08/03 10:08:00;;;;;;;13.07;12.13;;;18.70;99.90;;;;;;5021644;28;20407;-75
2021/08/03 10:10:27;;;;;;;12.85;11.95;;;19.00;99.90;;;;;;5016472;28;20501;-75
2021/08/03 10:12:54;;;;;;;11.48;10.57;;;18.90;99.90;;;;;;5018518;28;20058;-76
2021/08/03 10:15:21;;;;;;;12.57;11.48;;;18.80;99.90;;;;;;5000244;28;20613;-75
2021/08/03 10:17:48;;;;;;;13.15;12.05;;;18.40;99.90;;;;;;4986337;28;20049;-75
2021/08/03 10:20:15;;;;;;;13.00;11.65;;;18.10;99.90;;;;;;4991018;28;20498;-76
2021/08/03 10:23:05;;;;;;;12.82;11.65;;;18.20;99.90;;;;;;4992515;28;20070;-75
2021/08/03 10:25:36;;;;;;;13.18;12.00;;;18.40;99.90;;;;;;5003328;28;20045;-75
2021/08/03 10:28:25;;;;;;;13.15;11.73;;;18.70;99.90;;;;;;5035368;28;20064;-76
2021/08/03 10:30:56;;;;;;;13.02;11.80;;;18.80;99.90;;;;;;5000663;28;20526;-76
2021/08/03 10:33:43;;;;;;;13.05;11.88;;;19.00;99.90;;;;;;5030623;28;20060;-75
2021/08/03 10:36:45;;;;;;;13.63;12.45;;;19.10;99.90;;;;;;5013994;28;20505;-75
2021/08/03 10:39:17;;;;;;;13.15;11.93;;;19.30;99.90;;;;;;5025542;28;20052;-75
2021/08/03 10:41:59;;;;;;;12.70;11.70;;;19.10;99.90;;;;;;5015199;28;20056;-76
2021/08/03 10:44:46;;;;;;;13.82;12.77;;;19.40;99.90;;;;;;5021506;28;20046;-74
2021/08/03 10:47:43;;;;;;;13.80;12.43;;;19.50;99.90;;;;;;5021435;28;20046;-74
2021/08/03 10:50:12;;;;;;;13.50;12.38;;;19.50;99.90;;;;;;5000638;28;20054;-73
2021/08/03 10:52:54;;;;;;;13.13;11.98;;;19.40;99.90;;;;;;5008860;28;20045;-75
2021/08/03 10:55:34;;;;;;;13.57;12.18;;;19.40;99.90;;;;;;4999682;28;20054;-75
2021/08/03 10:58:11;;;;;;;12.57;11.30;;;19.40;99.90;;;;;;4989777;28;20087;-75
2021/08/03 11:00:48;;;;;;;12.80;11.60;;;18.70;99.90;;;;;;5003191;28;20050;-73
2021/08/03 11:03:34;;;;;;;13.40;12.00;;;18.70;99.90;;;;;;5010058;28;20410;-74
2021/08/03 11:06:09;;;;;;;13.45;12.15;;;18.50;99.90;;;;;;5000014;28;20107;-74
2021/08/03 11:08:41;;;;;;;12.95;12.05;;;18.30;99.90;;;;;;5010171;28;20053;-74
2021/08/03 11:11:08;;;;;;;12.98;11.68;;;18.40;99.90;;;;;;4987700;28;20057;-74
2021/08/03 11:13:50;;;;;;;13.30;12.10;;;18.30;99.90;;;;;;5004946;28;20605;-75
2021/08/03 11:16:21;;;;;;;13.50;12.32;;;18.60;99.90;;;;;;4988805;28;20077;-75
2021/08/03 11:18:50;;;;;;;12.82;11.50;;;18.80;99.90;;;;;;5004739;28;20336;-75
2021/08/03 11:21:22;;;;;;;12.80;11.70;;;19.30;99.90;;;;;;5013554;28;20305;-75
2021/08/03 11:23:58;;;;;;;13.50;12.05;;;19.00;99.90;;;;;;4988529;28;20367;-76
2021/08/03 11:26:33;;;;;;;13.70;12.40;;;18.90;99.90;;;;;;4990004;28;20081;-75
2021/08/03 11:29:12;;;;;;;13.32;12.20;;;19.00;99.90;;;;;;4985168;28;20077;-76
2021/08/03 11:31:58;;;;;;;14.27;12.77;;;19.00;99.90;;;;;;4983607;28;20050;-75
2021/08/03 11:34:41;;;;;;;14.32;13.02;;;19.20;99.90;;;;;;5006362;28;20096;-75
2021/08/03 11:37:15;;;;;;;13.45;12.20;;;19.10;99.90;;;;;;5023914;28;20046;-76
2021/08/03 11:39:51;;;;;;;12.80;11.70;;;19.10;99.90;;;;;;5005382;28;20112;-76
2021/08/03 11:42:33;;;;;;;12.75;11.50;;;19.20;99.90;;;;;;5004956;28;20301;-75
2021/08/03 11:45:07;;;;;;;15.18;11.07;;;19.10;99.90;;;;;;5004919;28;20507;-75
2021/08/03 11:47:39;;;;;;;;;;;19.00;99.90;;;;;;5005513;28;20082;-75
2021/08/03 11:50:07;;;;;;;11.48;10.38;;;18.60;99.90;;;;;;5012686;28;19921;-75
2021/08/03 11:52:34;;;;;;;11.45;10.15;;;18.50;99.90;;;;;;5019530;28;20527;-75
2021/08/03 11:55:01;;;;;;;11.13;10.00;;;18.30;99.90;;;;;;5006209;28;20569;-76
2021/08/03 11:57:33;;;;;;;12.07;11.05;;;18.60;99.90;;;;;;4987189;28;20073;-75
2021/08/03 12:00:08;;;;;;;10.52;9.55;;;18.70;99.90;;;;;;4969077;28;20076;-75
2021/08/03 12:02:37;;;;;;;11.65;10.40;;;18.80;99.90;;;;;;4986842;28;20273;-75
2021/08/03 12:05:12;;;;;;;11.18;10.50;;;19.00;99.90;;;;;;5008047;28;20214;-75
2021/08/03 12:07:46;;;;;;;10.60;9.80;;;19.20;99.90;;;;;;4984874;28;20046;-76
2021/08/03 12:10:13;;;;;;;13.02;11.77;;;19.40;99.90;;;;;;4984828;28;20286;-76
2021/08/03 12:12:43;;;;;;;13.18;12.23;;;19.60;99.90;;;;;;4986179;28;20562;-75
2021/08/03 12:15:13;;;;;;;14.98;11.82;;;19.60;99.90;;;;;;4993694;28;20065;-75
2021/08/03 12:17:40;;;;;;;12.02;10.60;;;19.80;99.90;;;;;;5005071;28;20131;-76
2021/08/03 12:20:39;;;;;;;10.98;10.18;;;19.90;99.90;;;;;;5010226;28;20030;-76
2021/08/03 12:23:32;;;;;;;12.27;11.38;;;20.00;99.90;;;;;;5018631;28;20080;-76
2021/08/03 12:26:03;;;;;;;12.43;11.23;;;19.80;99.90;;;;;;5007651;28;20361;-76
2021/08/03 12:28:41;;;;;;;12.13;10.90;;;19.90;99.90;;;;;;5003832;28;20414;-76
2021/08/03 12:31:25;;;;;;;11.70;10.82;;;20.20;99.90;;;;;;4987367;28;20045;-76
2021/08/03 12:33:53;;;;;;;12.98;11.88;;;20.10;99.90;;;;;;5017094;28;20057;-76
2021/08/03 12:36:21;;;;;;;12.88;11.63;;;19.90;99.90;;;;;;5013548;28;20129;-76
2021/08/03 12:39:26;;;;;;;11.95;10.98;;;19.90;99.90;;;;;;5024870;28;20357;-76
2021/08/03 12:44:47;;;;;;;11.48;10.38;;;19.10;99.90;;;;;;5026978;28;20562;-75
2021/08/03 12:47:20;;;;;;;12.45;11.50;;;19.30;99.90;;;;;;5010302;28;20049;-76
2021/08/03 12:49:49;;;;;;;12.85;11.82;;;19.50;99.90;;;;;;5008732;28;20490;-76
2021/08/03 12:52:24;;;;;;;12.50;11.50;;;19.50;99.90;;;;;;5014779;28;20177;-76